This is the latest recevied weather packets stored in our database for station/object WX2NJ. If no packets are shown the sender has not sent any weather packets the latest 10 day(s).
| Time | Temp. | Humidity | Pressure | Rain* | Wind** | Luminosity | Snow |
|---|---|---|---|---|---|---|---|
| 1777752855 | 13.33° C | 69% | 1013.5 hPa | 0 mm | - | 100 W/m² | - |
| 1777752553 | 13.89° C | 69% | 1013.6 hPa | 0 mm | - | 102 W/m² | - |
| 1777751946 | 13.89° C | 69% | 1013.8 hPa | 0 mm | - | 148 W/m² | - |
| 1777750732 | 13.89° C | 67% | 1013.6 hPa | 0 mm | - | 146 W/m² | - |
| 1777750125 | 14.44° C | 66% | 1014.1 hPa | 0 mm | - | 172 W/m² | - |
| 1777749519 | 15° C | 65% | 1014.1 hPa | 0 mm | - | 171 W/m² | - |
| 1777748914 | 15.56° C | 63% | 1014.4 hPa | 0 mm | - | 251 W/m² | - |
| 1777746789 | 16.11° C | 53% | 1014.7 hPa | 0 mm | - | 620 W/m² | - |
| 1777746484 | 16.11° C | 55% | 1014.7 hPa | 0 mm | - | 259 W/m² | - |
| 1777742851 | 14.44° C | 69% | 1015 hPa | 0 mm | - | 141 W/m² | - |
| 1777742547 | 14.44° C | 69% | 1014.8 hPa | 0 mm | - | 202 W/m² | - |
| 1777742243 | 13.89° C | 69% | 1015.1 hPa | 0 mm | - | 166 W/m² | - |
| 1777741024 | 13.89° C | 69% | 1015.1 hPa | 0 mm | - | 125 W/m² | - |
| 1777739810 | 14.44° C | 63% | 1015.3 hPa | 0 mm | - | 87 W/m² | - |
| 1777739508 | 14.44° C | 63% | 1015.5 hPa | 0 mm | - | 78 W/m² | - |
| 1777739204 | 15° C | 61% | 1015.5 hPa | 0 mm | - | 91 W/m² | - |
| 1777738901 | 15° C | 62% | 1015.7 hPa | 0 mm | - | 111 W/m² | - |
| 1777738599 | 15° C | 62% | 1015.8 hPa | 0 mm | - | 131 W/m² | - |
| 1777738295 | 15° C | 63% | 1015.6 hPa | 0 mm | - | 132 W/m² | - |
| 1777737993 | 15.56° C | 61% | 1015.5 hPa | 0 mm | - | 164 W/m² | - |
| 1777737692 | 15° C | 61% | 1015.6 hPa | 0 mm | - | 240 W/m² | - |
| 1777736154 | 15° C | 62% | 1015.4 hPa | 0 mm | - | 139 W/m² | - |
| 1777735851 | 15° C | 61% | 1015.2 hPa | 0 mm | - | 152 W/m² | - |
| 1777735549 | 15° C | 63% | 1015.4 hPa | 0 mm | - | 135 W/m² | - |
| 1777735246 | 15° C | 62% | 1015.3 hPa | 0 mm | - | 165 W/m² | - |
* Rain latest hour (hover to see other rain measurements)
** Current wind speed in m/s (hover to see current wind gust speed)